EGKB Airport Information

Runway Information
Runway 03 Length 5912 ft width 148 ft Elevation 577 ft Threshold 790 ft Heading 26
Runway 21 Length 5912 ft Width 148 ft Elevation 517 ft Threshold N/A Heading 206
Runway 11 Length 2598 ft width 59 ft Elevation 586 ft Threshold N/A Heading 105
Runway 29 Length 2598 ft Width 59 ft Elevation 598 ft Threshold N/A Heading 285
Airport Frequencies
Type APP Name APP Frequency 129.4 MHZ
Type ATIS Name ATIS Frequency 135.675 MHZ
Type RDR Name THAMES RDR Frequency 132.7 MHZ
Type TWR Name TWR Frequency 134.8 MHZ
Airport Navaids
Type VOR-DME Name Biggin Frequency 115100 KHZ
Airport Weather Information & NOTAM
ADDS - METARS form results

(1739 UTC 05 February 2023)
Data provider http://aviationweather.gov/metar/data/
 
METAR text: EGKB 051720Z 01005KT CAVOK 03/00 Q1045
Conditions at: EGKB (BIGGIN HILL , GB) observed 1720 UTC 05 February 2023
Temperature: 3.0°C (37°F)
Dewpoint: 0.0°C (32°F) [RH = 81%]
Pressure (altimeter): 30.86 inches Hg (1045.0 mb)
Winds: from the N (10 degrees) at 6 MPH (5 knots; 2.6 m/s)
Visibility: 6 or more miles (10+ km)
Ceiling: ceiling and visibility are OK
Clouds: unknown
Weather: no significant weather observed at this time

METAR text: EGKB 051650Z 01005KT CAVOK 04/01 Q1045
Conditions at: EGKB (BIGGIN HILL , GB) observed 1650 UTC 05 February 2023
Temperature: 4.0°C (39°F)
Dewpoint: 1.0°C (34°F) [RH = 81%]
Pressure (altimeter): 30.86 inches Hg (1045.0 mb)
Winds: from the N (10 degrees) at 6 MPH (5 knots; 2.6 m/s)
Visibility: 6 or more miles (10+ km)
Ceiling: ceiling and visibility are OK
Clouds: unknown
Weather: no significant weather observed at this time

Forecast for: EGKB (BIGGIN HILL , GB)
Text: TAF EGKB 051705Z 0518/0522 01008KT CAVOK
Forecast period: 1800 to 2000 UTC 05 February 2023
Forecast type: FROM: standard forecast or significant change
Winds: from the N (10 degrees) at 9 MPH (8 knots; 4.1 m/s)
Visibility: 6 or more miles (10+ km)
Ceiling: unknown
Clouds: missing
Weather: NSW  (no significant weather)
Text: BECMG 0520/0522 8000
Forecast period: 2000 to 2200 UTC 05 February 2023
Forecast type: BECOMING: Conditions expected to become as follows by 2200 UTC 05 February 2023
Winds: from the N (10 degrees) at 9 MPH (8 knots; 4.1 m/s)
Visibility: 5 miles (8 km)
Ceiling: unknown
Clouds: missing
Weather: NSW  (no significant weather)